Andrew J. Barberi — WYR3370 — position and weather

sailwx.info

Track history (hours):
 
Tides and Currents Weather Stations Pressure Air Temp Water Temp Dewpoint Dewpoint Depression Visibility Wind Speed Wind Dir Waves Ship Positions

Andrew J. Barberi

Owner: CITY OF NEW YORK, Brooklyn, NY. More information available from US FCC via Universal Licensing System and Coast Guard Vessel Documentation Center.

Last reported at 2015-Mar-04 02:33 UTC. Time now 2015-Mar-04 02:49 UTC.
Position N 40°39' W 074°04'.

Length 94 m; draft 4.3 m.

Type: Ship. MMSI: 367000150.

Date/timePositionNaut miles runAvg speedWind from/ knotsBaromVisibWave heightAir tempDewpointWater temp
2015-Mar-04 02:33N 40°39' W 074°04'4 4.0
2015-Mar-04 01:33N 40°42' W 074°01'4 3.6
2015-Mar-04 00:27N 40°39' W 074°04'0 0.2
2015-Mar-03 23:33N 40°39' W 074°04'0 0.1
2015-Mar-03 22:33N 40°39' W 074°04'2 1.6
2015-Mar-03 21:33N 40°40' W 074°03'3 2.6
2015-Mar-03 20:33N 40°42' W 074°01'4 3.7
2015-Mar-03 19:24N 40°39' W 074°04'0 0.4
2015-Mar-03 18:34N 40°39' W 074°04'4 4.1
2015-Mar-03 17:33N 40°42' W 074°01'4 4.3
2015-Mar-03 16:33N 40°39' W 074°04'0 0.3
2015-Mar-03 15:33N 40°39' W 074°04'0 0.3
2015-Mar-03 14:33N 40°39' W 074°04'3 3.5
2015-Mar-03 13:33N 40°42' W 074°02'1 0.5
2015-Mar-03 12:33N 40°42' W 074°01'0 0.3
2015-Mar-03 11:33N 40°42' W 074°01'4 2.0
2015-Mar-03 09:20N 40°39' W 074°04'0 0.0
2015-Mar-03 08:32N 40°39' W 074°04'0 0.0
2015-Mar-03 07:26N 40°39' W 074°04'0 0.0
2015-Mar-03 06:32N 40°39' W 074°04'0 0.0
2015-Mar-03 05:26N 40°39' W 074°04'0 0.0
2015-Mar-03 04:32N 40°39' W 074°04'0 0.0
2015-Mar-03 03:32N 40°39' W 074°04'0 0.0
2015-Mar-03 02:32N 40°39' W 074°04'4 4.3
2015-Mar-03 01:34N 40°42' W 074°01'4 4.1
2015-Mar-03 00:33N 40°39' W 074°04'0 0.5
2015-Mar-02 23:33N 40°39' W 074°04'0 0.1
2015-Mar-02 22:33N 40°39' W 074°04'4 3.8
2015-Mar-02 21:31N 40°42' W 074°01'0 0.1
2015-Mar-02 20:33N 40°42' W 074°01'4 4.3
2015-Mar-02 19:33N 40°39' W 074°04'1 0.5
2015-Mar-02 18:34N 40°39' W 074°04'1 0.6
2015-Mar-02 17:33N 40°39' W 074°04'0 0.0
2015-Mar-02 16:33N 40°39' W 074°04'0 0.0
2015-Mar-02 15:33N 40°39' W 074°04'0 0.2
2015-Mar-02 14:33N 40°39' W 074°04'4 3.7
2015-Mar-02 13:33N 40°42' W 074°01'0 0.1
2015-Mar-02 12:34N 40°42' W 074°01'0 0.2
2015-Mar-02 11:33N 40°42' W 074°01'4 4.0
2015-Mar-02 10:33N 40°39' W 074°04'0 0.0
2015-Mar-02 09:26N 40°39' W 074°04'0 0.0
2015-Mar-02 08:32N 40°39' W 074°04'0 0.0
2015-Mar-02 07:32N 40°39' W 074°04'0 0.0
2015-Mar-02 06:32N 40°39' W 074°04'0 0.0
2015-Mar-02 05:32N 40°39' W 074°04'0 0.0
2015-Mar-02 04:32N 40°39' W 074°04'0 0.0
2015-Mar-02 03:32N 40°39' W 074°04'0 0.0
2015-Mar-02 02:32N 40°39' W 074°04'0 0.0
2015-Mar-02 01:33N 40°39' W 074°04'0 0.0
2015-Mar-02 00:33N 40°39' W 074°04'1 0.5
2015-Mar-01 23:34N 40°39' W 074°04'0 0.1
2015-Mar-01 22:33N 40°39' W 074°04'4 3.7
2015-Mar-01 21:33N 40°42' W 074°01'4 4.2
2015-Mar-01 20:33N 40°39' W 074°04'1 0.5
2015-Mar-01 19:33N 40°39' W 074°04'4 3.8
2015-Mar-01 18:33N 40°42' W 074°01'4 4.3
2015-Mar-01 17:33N 40°39' W 074°04'0 0.3
2015-Mar-01 16:33N 40°39' W 074°04'0 0.3
2015-Mar-01 15:33N 40°39' W 074°04'0 0.0
2015-Mar-01 14:33N 40°39' W 074°04'0 0.0
2015-Mar-01 13:33N 40°39' W 074°04'0 0.0
2015-Mar-01 12:33N 40°39' W 074°04'0 0.0
2015-Mar-01 11:33N 40°39' W 074°04'0 0.0
2015-Mar-01 10:33N 40°39' W 074°04'0 0.0
2015-Mar-01 09:33N 40°39' W 074°04'0 0.0
2015-Mar-01 08:33N 40°39' W 074°04'0 0.0
2015-Mar-01 07:33N 40°39' W 074°04'0 0.0
2015-Mar-01 06:33N 40°39' W 074°04'0 0.0
2015-Mar-01 05:33N 40°39' W 074°04'0 0.0
2015-Mar-01 04:33N 40°39' W 074°04'0 0.0
2015-Mar-01 03:33N 40°39' W 074°04'0 0.0
2015-Mar-01 02:33N 40°39' W 074°04'0 0.0
2015-Mar-01 01:33N 40°39' W 074°04'0 0.0
2015-Mar-01 00:23N 40°39' W 074°04'0 0.2
2015-Feb-28 23:33N 40°39' W 074°04'0 0.1
2015-Feb-28 22:34N 40°39' W 074°04'0 0.0
2015-Feb-28 21:33N 40°39' W 074°04'0 0.0
2015-Feb-28 20:33N 40°39' W 074°04'0 0.2
2015-Feb-28 19:34N 40°39' W 074°04'4 3.9
2015-Feb-28 18:33N 40°42' W 074°01'4 3.5
2015-Feb-28 17:22N 40°39' W 074°04'0 0.4
2015-Feb-28 16:33N 40°39' W 074°04'0 0.4
2015-Feb-28 15:33N 40°39' W 074°04'0 0.0
2015-Feb-28 14:31N 40°39' W 074°04'0 0.0
2015-Feb-28 13:31N 40°39' W 074°04'0 0.0
2015-Feb-28 12:31N 40°39' W 074°04'0 0.0
2015-Feb-28 11:31N 40°39' W 074°04'0 0.0
2015-Feb-28 10:31N 40°39' W 074°04'0 0.0
2015-Feb-28 09:31N 40°39' W 074°04'0 0.0
2015-Feb-28 08:31N 40°39' W 074°04'0 0.0
2015-Feb-28 07:31N 40°39' W 074°04'0 0.0
2015-Feb-28 06:31N 40°39' W 074°04'0 0.0
2015-Feb-28 05:31N 40°39' W 074°04'0 0.0
2015-Feb-28 04:31N 40°39' W 074°04'0 0.0
2015-Feb-28 03:31N 40°39' W 074°04'0 0.0
2015-Feb-28 02:31N 40°39' W 074°04'0 0.1
2015-Feb-28 01:33N 40°39' W 074°04'4 3.6
2015-Feb-28 00:22N 40°42' W 074°01'0 0.1
2015-Feb-27 23:33N 40°42' W 074°01'0 0.2
2015-Feb-27 22:33N 40°42' W 074°01'2 2.1
2015-Feb-27 21:33N 40°40' W 074°03'2 1.7
2015-Feb-27 20:25N 40°39' W 074°04'0 0.1
2015-Feb-27 19:33N 40°39' W 074°04'0 0.3
2015-Feb-27 18:33N 40°39' W 074°04'4 3.8
2015-Feb-27 17:33N 40°42' W 074°01'0 0.1
2015-Feb-27 16:33N 40°42' W 074°01'4 4.0
2015-Feb-27 15:33N 40°39' W 074°04'0 0.2
2015-Feb-27 14:34N 40°39' W 074°04'3 3.0
2015-Feb-27 13:33N 40°41' W 074°02'0 0.5
2015-Feb-27 12:33N 40°42' W 074°02'0 0.5
2015-Feb-27 11:34N 40°42' W 074°01'4 4.0
2015-Feb-27 10:33N 40°39' W 074°04'0 0.0
2015-Feb-27 09:33N 40°39' W 074°04'0 0.0
2015-Feb-27 08:31N 40°39' W 074°04'0 0.0
2015-Feb-27 07:31N 40°39' W 074°04'0 0.0
2015-Feb-27 06:31N 40°39' W 074°04'0 0.0
2015-Feb-27 05:31N 40°39' W 074°04'0 0.0
2015-Feb-27 04:31N 40°39' W 074°04'0 0.0
2015-Feb-27 03:31N 40°39' W 074°04'0 0.1
2015-Feb-27 02:33N 40°39' W 074°04'4 4.2
2015-Feb-27 01:32N 40°42' W 074°01'4 4.1
2015-Feb-27 00:29N 40°39' W 074°04'0 0.0
2015-Feb-26 23:28N 40°39' W 074°04'0 0.2
2015-Feb-26 22:34N 40°39' W 074°04'4 4.2
2015-Feb-26 21:33N 40°42' W 074°01'0 0.2
2015-Feb-26 20:33N 40°42' W 074°01'4 3.5
2015-Feb-26 19:23N 40°39' W 074°04'0 0.3
2015-Feb-26 18:33N 40°39' W 074°04'4 4.1
2015-Feb-26 17:33N 40°42' W 074°01'4 4.3
2015-Feb-26 16:33N 40°39' W 074°04'0 0.1
2015-Feb-26 15:33N 40°39' W 074°04'4 3.8
2015-Feb-26 14:33N 40°42' W 074°01'0 0.1
2015-Feb-26 13:33N 40°42' W 074°01'1 0.5
2015-Feb-26 12:33N 40°42' W 074°01'0 0.0
2015-Feb-26 11:33N 40°42' W 074°01'4 4.3
2015-Feb-26 10:33N 40°39' W 074°04'0 0.0
2015-Feb-26 09:33N 40°39' W 074°04'0 0.0
2015-Feb-26 06:04N 40°39' W 074°04'0 0.0
2015-Feb-26 05:22N 40°39' W 074°04'0 0.0
2015-Feb-26 04:04N 40°39' W 074°04'0 0.1
2015-Feb-26 02:34N 40°39' W 074°04'4 4.3
2015-Feb-26 01:33N 40°42' W 074°01'4 3.9
2015-Feb-26 00:26N 40°39' W 074°04'0 0.0
2015-Feb-25 23:24N 40°39' W 074°04'0 0.2
2015-Feb-25 22:33N 40°39' W 074°04'4 4.1
2015-Feb-25 21:33N 40°42' W 074°01'0 0.2
2015-Feb-25 20:33N 40°42' W 074°01'4 3.5
2015-Feb-25 19:24N 40°39' W 074°04'0 0.2
2015-Feb-25 18:33N 40°39' W 074°04'0 0.2
2015-Feb-25 17:33N 40°39' W 074°04'0 0.2
2015-Feb-25 16:34N 40°39' W 074°04'0 0.2
2015-Feb-25 15:33N 40°39' W 074°04'4 4.1
2015-Feb-25 14:33N 40°42' W 074°01'0 0.1
2015-Feb-25 12:33N 40°42' W 074°01'0 0.0
2015-Feb-25 11:32N 40°42' W 074°01'4 4.6
2015-Feb-25 10:34N 40°38' W 074°04'0 0.4
2015-Feb-25 09:33N 40°39' W 074°04'0 0.0
2015-Feb-25 08:33N 40°39' W 074°04'0 0.0
2015-Feb-25 07:30N 40°39' W 074°04'0 0.0
2015-Feb-25 06:30N 40°39' W 074°04'0 0.0
2015-Feb-25 05:30N 40°39' W 074°04'0 0.0
2015-Feb-25 04:30N 40°39' W 074°04'0 0.0
2015-Feb-25 03:33N 40°39' W 074°04'0 0.1
2015-Feb-25 02:34N 40°39' W 074°04'4 4.2
2015-Feb-25 01:33N 40°42' W 074°01'4 4.3
2015-Feb-25 00:33N 40°39' W 074°04'0 0.0
2015-Feb-24 23:30N 40°39' W 074°04'0 0.3
2015-Feb-24 22:33N 40°39' W 074°04'4 4.1
2015-Feb-24 21:33N 40°42' W 074°01'0 0.0
2015-Feb-24 20:33N 40°42' W 074°01'4 4.3
2015-Feb-24 19:33N 40°39' W 074°04'0 0.2
2015-Feb-24 18:34N 40°39' W 074°04'4 4.0
2015-Feb-24 17:33N 40°42' W 074°01'4 4.1
2015-Feb-24 16:33N 40°39' W 074°04'0 0.2
2015-Feb-24 15:33N 40°39' W 074°04'4 4.1
2015-Feb-24 14:33N 40°42' W 074°01'0 0.0
2015-Feb-24 13:34N 40°42' W 074°01'0 0.0
2015-Feb-24 12:33N 40°42' W 074°01'0 0.0
2015-Feb-24 11:33N 40°42' W 074°01'4 4.2
2015-Feb-24 10:33N 40°39' W 074°04'0 0.0
2015-Feb-24 09:06N 40°39' W 074°04'0 0.0
2015-Feb-24 08:30N 40°39' W 074°04'0 0.0
2015-Feb-24 07:30N 40°39' W 074°04'0 0.0
2015-Feb-24 06:30N 40°39' W 074°04'0 0.0
2015-Feb-24 05:30N 40°39' W 074°04'0 0.0
2015-Feb-24 04:30N 40°39' W 074°04'0 0.0
2015-Feb-24 03:30N 40°39' W 074°04'0 0.1
2015-Feb-24 02:33N 40°39' W 074°04'4 4.3
2015-Feb-24 01:33N 40°42' W 074°01'4 4.3
2015-Feb-24 00:33N 40°39' W 074°04'0 0.1
2015-Feb-23 23:34N 40°39' W 074°04'0 0.4
2015-Feb-23 22:34N 40°38' W 074°04'4 4.1
2015-Feb-23 21:33N 40°42' W 074°01'0 0.1
2015-Feb-23 20:33N 40°42' W 074°01'4 4.2
2015-Feb-23 19:33N 40°39' W 074°04'0 0.3
2015-Feb-23 18:33N 40°39' W 074°04'0 0.4
2015-Feb-23 17:33N 40°39' W 074°04'0 0.2
2015-Feb-23 16:34N 40°39' W 074°04'4 4.2
2015-Feb-23 15:34N 40°42' W 074°01'0 0.0
2015-Feb-23 14:33N 40°42' W 074°01'0 0.0
2015-Feb-23 13:34N 40°42' W 074°01'0 0.0
2015-Feb-23 12:33N 40°42' W 074°01'0 0.0
2015-Feb-23 11:33N 40°42' W 074°01'4 4.3
2015-Feb-23 10:33N 40°39' W 074°04'0 0.0
2015-Feb-23 09:17N 40°39' W 074°04'0 0.0
2015-Feb-23 08:31N 40°39' W 074°04'0 0.0
2015-Feb-23 07:28N 40°39' W 074°04'0 0.0
2015-Feb-23 06:31N 40°39' W 074°04'0 0.0
2015-Feb-23 05:28N 40°39' W 074°04'0 0.0
2015-Feb-23 04:28N 40°39' W 074°04'0 0.0
2015-Feb-23 03:31N 40°39' W 074°04'0 0.0
2015-Feb-23 02:28N 40°39' W 074°04'0 0.0
2015-Feb-23 01:28N 40°39' W 074°04'0 0.1
2015-Feb-23 00:34N 40°39' W 074°04'0 0.5
2015-Feb-22 23:34N 40°39' W 074°04'0 0.3
2015-Feb-22 22:33N 40°39' W 074°04'4 4.0
2015-Feb-22 21:33N 40°42' W 074°01'4 3.7
2015-Feb-22 20:25N 40°39' W 074°04'0 0.3
2015-Feb-22 19:33N 40°39' W 074°04'4 4.0
2015-Feb-22 18:33N 40°42' W 074°01'4 4.1
2015-Feb-22 17:33N 40°39' W 074°04'0 0.2
2015-Feb-22 16:34N 40°39' W 074°04'0 0.1
2015-Feb-22 15:33N 40°39' W 074°04'0 0.0
2015-Feb-22 14:33N 40°39' W 074°04'0 0.0
2015-Feb-22 13:33N 40°39' W 074°04'4 4.2
2015-Feb-22 12:34N 40°42' W 074°01'0 0.1
2015-Feb-22 11:33N 40°42' W 074°01'0 0.0
2015-Feb-22 10:33N 40°42' W 074°01'0 0.0
2015-Feb-22 09:33N 40°42' W 074°01'0 0.0
2015-Feb-22 08:33N 40°42' W 074°01'0 0.1
2015-Feb-22 07:33N 40°42' W 074°01'0 0.1
2015-Feb-22 06:33N 40°42' W 074°01'0 0.1
2015-Feb-22 05:33N 40°42' W 074°01'4 4.4
2015-Feb-22 04:33N 40°38' W 074°04'0 0.2
2015-Feb-22 03:33N 40°39' W 074°04'  
Track history (hours):
 
Tides and Currents Weather Stations Pressure Air Temp Water Temp Dewpoint Dewpoint Depression Visibility Wind Speed Wind Dir Waves Ship Positions

Andrew J. Barberi

Owner: CITY OF NEW YORK, Brooklyn, NY. More information available from US FCC via Universal Licensing System and Coast Guard Vessel Documentation Center.

Last reported at 2015-Mar-04 02:33 UTC. Time now 2015-Mar-04 02:49 UTC.
Position N 40°39' W 074°04'.

Length 94 m; draft 4.3 m.

Type: Ship. MMSI: 367000150.

Date/timePositionNaut miles runAvg speedWind from/ knotsBaromVisibWave heightAir tempDewpointWater temp
2015-Mar-04 02:33N 40°39' W 074°04'4 4.0
2015-Mar-04 01:33N 40°42' W 074°01'4 3.6
2015-Mar-04 00:27N 40°39' W 074°04'0 0.2
2015-Mar-03 23:33N 40°39' W 074°04'0 0.1
2015-Mar-03 22:33N 40°39' W 074°04'2 1.6
2015-Mar-03 21:33N 40°40' W 074°03'3 2.6
2015-Mar-03 20:33N 40°42' W 074°01'4 3.7
2015-Mar-03 19:24N 40°39' W 074°04'0 0.4
2015-Mar-03 18:34N 40°39' W 074°04'4 4.1
2015-Mar-03 17:33N 40°42' W 074°01'4 4.3
2015-Mar-03 16:33N 40°39' W 074°04'0 0.3
2015-Mar-03 15:33N 40°39' W 074°04'0 0.3
2015-Mar-03 14:33N 40°39' W 074°04'3 3.5
2015-Mar-03 13:33N 40°42' W 074°02'1 0.5
2015-Mar-03 12:33N 40°42' W 074°01'0 0.3
2015-Mar-03 11:33N 40°42' W 074°01'4 2.0
2015-Mar-03 09:20N 40°39' W 074°04'0 0.0
2015-Mar-03 08:32N 40°39' W 074°04'0 0.0
2015-Mar-03 07:26N 40°39' W 074°04'0 0.0
2015-Mar-03 06:32N 40°39' W 074°04'0 0.0
2015-Mar-03 05:26N 40°39' W 074°04'0 0.0
2015-Mar-03 04:32N 40°39' W 074°04'0 0.0
2015-Mar-03 03:32N 40°39' W 074°04'0 0.0
2015-Mar-03 02:32N 40°39' W 074°04'4 4.3
2015-Mar-03 01:34N 40°42' W 074°01'4 4.1
2015-Mar-03 00:33N 40°39' W 074°04'0 0.5
2015-Mar-02 23:33N 40°39' W 074°04'0 0.1
2015-Mar-02 22:33N 40°39' W 074°04'4 3.8
2015-Mar-02 21:31N 40°42' W 074°01'0 0.1
2015-Mar-02 20:33N 40°42' W 074°01'4 4.3
2015-Mar-02 19:33N 40°39' W 074°04'1 0.5
2015-Mar-02 18:34N 40°39' W 074°04'1 0.6
2015-Mar-02 17:33N 40°39' W 074°04'0 0.0
2015-Mar-02 16:33N 40°39' W 074°04'0 0.0
2015-Mar-02 15:33N 40°39' W 074°04'0 0.2
2015-Mar-02 14:33N 40°39' W 074°04'4 3.7
2015-Mar-02 13:33N 40°42' W 074°01'0 0.1
2015-Mar-02 12:34N 40°42' W 074°01'0 0.2
2015-Mar-02 11:33N 40°42' W 074°01'4 4.0
2015-Mar-02 10:33N 40°39' W 074°04'0 0.0
2015-Mar-02 09:26N 40°39' W 074°04'0 0.0
2015-Mar-02 08:32N 40°39' W 074°04'0 0.0
2015-Mar-02 07:32N 40°39' W 074°04'0 0.0
2015-Mar-02 06:32N 40°39' W 074°04'0 0.0
2015-Mar-02 05:32N 40°39' W 074°04'0 0.0
2015-Mar-02 04:32N 40°39' W 074°04'0 0.0
2015-Mar-02 03:32N 40°39' W 074°04'0 0.0
2015-Mar-02 02:32N 40°39' W 074°04'0 0.0
2015-Mar-02 01:33N 40°39' W 074°04'0 0.0
2015-Mar-02 00:33N 40°39' W 074°04'1 0.5
2015-Mar-01 23:34N 40°39' W 074°04'0 0.1
2015-Mar-01 22:33N 40°39' W 074°04'4 3.7
2015-Mar-01 21:33N 40°42' W 074°01'4 4.2
2015-Mar-01 20:33N 40°39' W 074°04'1 0.5
2015-Mar-01 19:33N 40°39' W 074°04'4 3.8
2015-Mar-01 18:33N 40°42' W 074°01'4 4.3
2015-Mar-01 17:33N 40°39' W 074°04'0 0.3
2015-Mar-01 16:33N 40°39' W 074°04'0 0.3
2015-Mar-01 15:33N 40°39' W 074°04'0 0.0
2015-Mar-01 14:33N 40°39' W 074°04'0 0.0
2015-Mar-01 13:33N 40°39' W 074°04'0 0.0
2015-Mar-01 12:33N 40°39' W 074°04'0 0.0
2015-Mar-01 11:33N 40°39' W 074°04'0 0.0
2015-Mar-01 10:33N 40°39' W 074°04'0 0.0
2015-Mar-01 09:33N 40°39' W 074°04'0 0.0
2015-Mar-01 08:33N 40°39' W 074°04'0 0.0
2015-Mar-01 07:33N 40°39' W 074°04'0 0.0
2015-Mar-01 06:33N 40°39' W 074°04'0 0.0
2015-Mar-01 05:33N 40°39' W 074°04'0 0.0
2015-Mar-01 04:33N 40°39' W 074°04'0 0.0
2015-Mar-01 03:33N 40°39' W 074°04'0 0.0
2015-Mar-01 02:33N 40°39' W 074°04'0 0.0
2015-Mar-01 01:33N 40°39' W 074°04'0 0.0
2015-Mar-01 00:23N 40°39' W 074°04'0 0.2
2015-Feb-28 23:33N 40°39' W 074°04'0 0.1
2015-Feb-28 22:34N 40°39' W 074°04'0 0.0
2015-Feb-28 21:33N 40°39' W 074°04'0 0.0
2015-Feb-28 20:33N 40°39' W 074°04'0 0.2
2015-Feb-28 19:34N 40°39' W 074°04'4 3.9
2015-Feb-28 18:33N 40°42' W 074°01'4 3.5
2015-Feb-28 17:22N 40°39' W 074°04'0 0.4
2015-Feb-28 16:33N 40°39' W 074°04'0 0.4
2015-Feb-28 15:33N 40°39' W 074°04'0 0.0
2015-Feb-28 14:31N 40°39' W 074°04'0 0.0
2015-Feb-28 13:31N 40°39' W 074°04'0 0.0
2015-Feb-28 12:31N 40°39' W 074°04'0 0.0
2015-Feb-28 11:31N 40°39' W 074°04'0 0.0
2015-Feb-28 10:31N 40°39' W 074°04'0 0.0
2015-Feb-28 09:31N 40°39' W 074°04'0 0.0
2015-Feb-28 08:31N 40°39' W 074°04'0 0.0
2015-Feb-28 07:31N 40°39' W 074°04'0 0.0
2015-Feb-28 06:31N 40°39' W 074°04'0 0.0
2015-Feb-28 05:31N 40°39' W 074°04'0 0.0
2015-Feb-28 04:31N 40°39' W 074°04'0 0.0
2015-Feb-28 03:31N 40°39' W 074°04'0 0.0
2015-Feb-28 02:31N 40°39' W 074°04'0 0.1
2015-Feb-28 01:33N 40°39' W 074°04'4 3.6
2015-Feb-28 00:22N 40°42' W 074°01'0 0.1
2015-Feb-27 23:33N 40°42' W 074°01'0 0.2
2015-Feb-27 22:33N 40°42' W 074°01'2 2.1
2015-Feb-27 21:33N 40°40' W 074°03'2 1.7
2015-Feb-27 20:25N 40°39' W 074°04'0 0.1
2015-Feb-27 19:33N 40°39' W 074°04'0 0.3
2015-Feb-27 18:33N 40°39' W 074°04'4 3.8
2015-Feb-27 17:33N 40°42' W 074°01'0 0.1
2015-Feb-27 16:33N 40°42' W 074°01'4 4.0
2015-Feb-27 15:33N 40°39' W 074°04'0 0.2
2015-Feb-27 14:34N 40°39' W 074°04'3 3.0
2015-Feb-27 13:33N 40°41' W 074°02'0 0.5
2015-Feb-27 12:33N 40°42' W 074°02'0 0.5
2015-Feb-27 11:34N 40°42' W 074°01'4 4.0
2015-Feb-27 10:33N 40°39' W 074°04'0 0.0
2015-Feb-27 09:33N 40°39' W 074°04'0 0.0
2015-Feb-27 08:31N 40°39' W 074°04'0 0.0
2015-Feb-27 07:31N 40°39' W 074°04'0 0.0
2015-Feb-27 06:31N 40°39' W 074°04'0 0.0
2015-Feb-27 05:31N 40°39' W 074°04'0 0.0
2015-Feb-27 04:31N 40°39' W 074°04'0 0.0
2015-Feb-27 03:31N 40°39' W 074°04'0 0.1
2015-Feb-27 02:33N 40°39' W 074°04'4 4.2
2015-Feb-27 01:32N 40°42' W 074°01'4 4.1
2015-Feb-27 00:29N 40°39' W 074°04'0 0.0
2015-Feb-26 23:28N 40°39' W 074°04'0 0.2
2015-Feb-26 22:34N 40°39' W 074°04'4 4.2
2015-Feb-26 21:33N 40°42' W 074°01'0 0.2
2015-Feb-26 20:33N 40°42' W 074°01'4 3.5
2015-Feb-26 19:23N 40°39' W 074°04'0 0.3
2015-Feb-26 18:33N 40°39' W 074°04'4 4.1
2015-Feb-26 17:33N 40°42' W 074°01'4 4.3
2015-Feb-26 16:33N 40°39' W 074°04'0 0.1
2015-Feb-26 15:33N 40°39' W 074°04'4 3.8
2015-Feb-26 14:33N 40°42' W 074°01'0 0.1
2015-Feb-26 13:33N 40°42' W 074°01'1 0.5
2015-Feb-26 12:33N 40°42' W 074°01'0 0.0
2015-Feb-26 11:33N 40°42' W 074°01'4 4.3
2015-Feb-26 10:33N 40°39' W 074°04'0 0.0
2015-Feb-26 09:33N 40°39' W 074°04'0 0.0
2015-Feb-26 06:04N 40°39' W 074°04'0 0.0
2015-Feb-26 05:22N 40°39' W 074°04'0 0.0
2015-Feb-26 04:04N 40°39' W 074°04'0 0.1
2015-Feb-26 02:34N 40°39' W 074°04'4 4.3
2015-Feb-26 01:33N 40°42' W 074°01'4 3.9
2015-Feb-26 00:26N 40°39' W 074°04'0 0.0
2015-Feb-25 23:24N 40°39' W 074°04'0 0.2
2015-Feb-25 22:33N 40°39' W 074°04'4 4.1
2015-Feb-25 21:33N 40°42' W 074°01'0 0.2
2015-Feb-25 20:33N 40°42' W 074°01'4 3.5
2015-Feb-25 19:24N 40°39' W 074°04'0 0.2
2015-Feb-25 18:33N 40°39' W 074°04'0 0.2
2015-Feb-25 17:33N 40°39' W 074°04'0 0.2
2015-Feb-25 16:34N 40°39' W 074°04'0 0.2
2015-Feb-25 15:33N 40°39' W 074°04'4 4.1
2015-Feb-25 14:33N 40°42' W 074°01'0 0.1
2015-Feb-25 12:33N 40°42' W 074°01'0 0.0
2015-Feb-25 11:32N 40°42' W 074°01'4 4.6
2015-Feb-25 10:34N 40°38' W 074°04'0 0.4
2015-Feb-25 09:33N 40°39' W 074°04'0 0.0
2015-Feb-25 08:33N 40°39' W 074°04'0 0.0
2015-Feb-25 07:30N 40°39' W 074°04'0 0.0
2015-Feb-25 06:30N 40°39' W 074°04'0 0.0
2015-Feb-25 05:30N 40°39' W 074°04'0 0.0
2015-Feb-25 04:30N 40°39' W 074°04'0 0.0
2015-Feb-25 03:33N 40°39' W 074°04'0 0.1
2015-Feb-25 02:34N 40°39' W 074°04'4 4.2
2015-Feb-25 01:33N 40°42' W 074°01'4 4.3
2015-Feb-25 00:33N 40°39' W 074°04'0 0.0
2015-Feb-24 23:30N 40°39' W 074°04'0 0.3
2015-Feb-24 22:33N 40°39' W 074°04'4 4.1
2015-Feb-24 21:33N 40°42' W 074°01'0 0.0
2015-Feb-24 20:33N 40°42' W 074°01'4 4.3
2015-Feb-24 19:33N 40°39' W 074°04'0 0.2
2015-Feb-24 18:34N 40°39' W 074°04'4 4.0
2015-Feb-24 17:33N 40°42' W 074°01'4 4.1
2015-Feb-24 16:33N 40°39' W 074°04'0 0.2
2015-Feb-24 15:33N 40°39' W 074°04'4 4.1
2015-Feb-24 14:33N 40°42' W 074°01'0 0.0
2015-Feb-24 13:34N 40°42' W 074°01'0 0.0
2015-Feb-24 12:33N 40°42' W 074°01'0 0.0
2015-Feb-24 11:33N 40°42' W 074°01'4 4.2
2015-Feb-24 10:33N 40°39' W 074°04'0 0.0
2015-Feb-24 09:06N 40°39' W 074°04'0 0.0
2015-Feb-24 08:30N 40°39' W 074°04'0 0.0
2015-Feb-24 07:30N 40°39' W 074°04'0 0.0
2015-Feb-24 06:30N 40°39' W 074°04'0 0.0
2015-Feb-24 05:30N 40°39' W 074°04'0 0.0
2015-Feb-24 04:30N 40°39' W 074°04'0 0.0
2015-Feb-24 03:30N 40°39' W 074°04'0 0.1
2015-Feb-24 02:33N 40°39' W 074°04'4 4.3
2015-Feb-24 01:33N 40°42' W 074°01'4 4.3
2015-Feb-24 00:33N 40°39' W 074°04'0 0.1
2015-Feb-23 23:34N 40°39' W 074°04'0 0.4
2015-Feb-23 22:34N 40°38' W 074°04'4 4.1
2015-Feb-23 21:33N 40°42' W 074°01'0 0.1
2015-Feb-23 20:33N 40°42' W 074°01'4 4.2
2015-Feb-23 19:33N 40°39' W 074°04'0 0.3
2015-Feb-23 18:33N 40°39' W 074°04'0 0.4
2015-Feb-23 17:33N 40°39' W 074°04'0 0.2
2015-Feb-23 16:34N 40°39' W 074°04'4 4.2
2015-Feb-23 15:34N 40°42' W 074°01'0 0.0
2015-Feb-23 14:33N 40°42' W 074°01'0 0.0
2015-Feb-23 13:34N 40°42' W 074°01'0 0.0
2015-Feb-23 12:33N 40°42' W 074°01'0 0.0
2015-Feb-23 11:33N 40°42' W 074°01'4 4.3
2015-Feb-23 10:33N 40°39' W 074°04'0 0.0
2015-Feb-23 09:17N 40°39' W 074°04'0 0.0
2015-Feb-23 08:31N 40°39' W 074°04'0 0.0
2015-Feb-23 07:28N 40°39' W 074°04'0 0.0
2015-Feb-23 06:31N 40°39' W 074°04'0 0.0
2015-Feb-23 05:28N 40°39' W 074°04'0 0.0
2015-Feb-23 04:28N 40°39' W 074°04'0 0.0
2015-Feb-23 03:31N 40°39' W 074°04'0 0.0
2015-Feb-23 02:28N 40°39' W 074°04'0 0.0
2015-Feb-23 01:28N 40°39' W 074°04'0 0.1
2015-Feb-23 00:34N 40°39' W 074°04'0 0.5
2015-Feb-22 23:34N 40°39' W 074°04'0 0.3
2015-Feb-22 22:33N 40°39' W 074°04'4 4.0
2015-Feb-22 21:33N 40°42' W 074°01'4 3.7
2015-Feb-22 20:25N 40°39' W 074°04'0 0.3
2015-Feb-22 19:33N 40°39' W 074°04'4 4.0
2015-Feb-22 18:33N 40°42' W 074°01'4 4.1
2015-Feb-22 17:33N 40°39' W 074°04'0 0.2
2015-Feb-22 16:34N 40°39' W 074°04'0 0.1
2015-Feb-22 15:33N 40°39' W 074°04'0 0.0
2015-Feb-22 14:33N 40°39' W 074°04'0 0.0
2015-Feb-22 13:33N 40°39' W 074°04'4 4.2
2015-Feb-22 12:34N 40°42' W 074°01'0 0.1
2015-Feb-22 11:33N 40°42' W 074°01'0 0.0
2015-Feb-22 10:33N 40°42' W 074°01'0 0.0
2015-Feb-22 09:33N 40°42' W 074°01'0 0.0
2015-Feb-22 08:33N 40°42' W 074°01'0 0.1
2015-Feb-22 07:33N 40°42' W 074°01'0 0.1
2015-Feb-22 06:33N 40°42' W 074°01'0 0.1
2015-Feb-22 05:33N 40°42' W 074°01'4 4.4
2015-Feb-22 04:33N 40°38' W 074°04'0 0.2
2015-Feb-22 03:33N 40°39' W 074°04'  

Dump ship's entire track history